createdAt,value
2019-05-17T00:02:17.326Z,33.00
2019-05-17T00:04:43.903Z,32.07
2019-05-17T00:07:11.252Z,32.97
2019-05-17T00:09:38.587Z,33.37
2019-05-17T00:12:07.559Z,34.80
2019-05-17T00:14:36.545Z,35.73
2019-05-17T00:17:06.479Z,35.03
2019-05-17T00:19:33.093Z,33.53
2019-05-17T00:22:00.517Z,32.77
2019-05-17T00:24:27.865Z,33.47
2019-05-17T00:26:55.190Z,33.37
2019-05-17T00:29:22.549Z,33.17
2019-05-17T00:31:49.935Z,36.43
2019-05-17T00:34:17.285Z,34.67
2019-05-17T00:36:46.773Z,37.17
2019-05-17T00:39:13.626Z,34.43
2019-05-17T00:41:40.949Z,34.37
2019-05-17T00:44:08.297Z,34.97
2019-05-17T00:46:37.238Z,32.37
2019-05-17T00:49:06.499Z,34.93
2019-05-17T00:51:34.001Z,34.43
2019-05-17T00:54:01.373Z,33.40
2019-05-17T00:56:28.768Z,33.70
2019-05-17T00:58:56.815Z,33.53
2019-05-17T01:01:24.462Z,35.90
2019-05-17T01:03:51.857Z,37.43
2019-05-17T01:06:19.273Z,35.40
2019-05-17T01:08:59.392Z,37.83
2019-05-17T01:11:16.499Z,39.60
2019-05-17T01:13:44.105Z,38.27
2019-05-17T01:16:11.516Z,37.87
2019-05-17T01:18:38.852Z,40.00
2019-05-17T01:21:06.604Z,40.37
2019-05-17T01:23:36.124Z,39.63
2019-05-17T01:26:02.974Z,40.23
2019-05-17T01:28:30.322Z,41.03
2019-05-17T01:30:57.641Z,41.83
2019-05-17T01:33:26.452Z,39.87
2019-05-17T01:35:53.999Z,43.23
2019-05-17T01:38:21.325Z,39.30
2019-05-17T01:40:48.686Z,42.17
2019-05-17T01:43:16.681Z,39.87
2019-05-17T01:45:44.229Z,38.70
2019-05-17T01:48:11.585Z,38.57
2019-05-17T01:50:38.976Z,37.27
2019-05-17T01:53:07.454Z,39.73
2019-05-17T01:55:37.178Z,36.93
2019-05-17T01:58:03.902Z,38.37
2019-05-17T02:00:31.216Z,39.23
2019-05-17T02:02:58.572Z,38.07
2019-05-17T02:05:27.389Z,38.27
2019-05-17T02:07:56.964Z,40.23
2019-05-17T02:10:23.996Z,39.63
2019-05-17T02:12:51.338Z,41.47
2019-05-17T02:15:18.728Z,38.60
2019-05-17T02:17:46.868Z,39.13
2019-05-17T02:20:16.854Z,37.70
2019-05-17T02:22:43.498Z,37.83
2019-05-17T02:25:11.498Z,39.17
2019-05-17T02:27:43.991Z,39.77
2019-05-17T02:30:08.496Z,38.87
2019-05-17T02:32:35.859Z,39.27
2019-05-17T02:35:03.643Z,37.97
2019-05-17T02:37:33.450Z,39.50
2019-05-17T02:40:04.683Z,39.67
2019-05-17T02:42:29.110Z,39.03
2019-05-17T02:44:56.515Z,39.57
2019-05-17T02:47:23.862Z,38.60
2019-05-17T02:49:52.498Z,36.97
2019-05-17T02:52:22.799Z,36.70
2019-05-17T02:54:49.825Z,36.43
2019-05-17T02:57:17.971Z,36.53
2019-05-17T02:59:45.428Z,39.43
2019-05-17T03:02:12.931Z,40.37
2019-05-17T03:04:43.290Z,41.47
2019-05-17T03:07:13.277Z,39.47
2019-05-17T03:09:38.429Z,39.50
2019-05-17T03:12:05.852Z,39.03
2019-05-17T03:14:34.334Z,38.20
2019-05-17T03:17:03.365Z,37.63
2019-05-17T03:19:32.774Z,38.83
2019-05-17T03:22:04.199Z,39.50
2019-05-17T03:24:28.674Z,38.60
2019-05-17T03:26:56.024Z,40.43
2019-05-17T03:29:23.350Z,41.70
2019-05-17T03:31:58.962Z,42.43
2019-05-17T03:34:25.754Z,40.40
2019-05-17T03:36:55.680Z,42.30
2019-05-17T03:39:18.588Z,42.87
2019-05-17T03:41:45.917Z,42.10
2019-05-17T03:44:13.799Z,42.73
2019-05-17T03:46:42.533Z,41.27
2019-05-17T03:49:13.003Z,44.60
2019-05-17T03:51:42.355Z,43.77
2019-05-17T03:54:08.296Z,43.87
2019-05-17T03:56:35.615Z,43.97
2019-05-17T03:59:03.751Z,44.10
2019-05-17T04:01:32.810Z,45.50
2019-05-17T04:04:02.863Z,43.80
2019-05-17T04:06:29.324Z,44.60
2019-05-17T04:08:56.689Z,48.77
2019-05-17T04:11:31.419Z,48.20
2019-05-17T04:13:53.812Z,50.57
2019-05-17T04:16:23.784Z,48.67
2019-05-17T04:18:53.286Z,49.80
2019-05-17T04:21:19.479Z,48.73
2019-05-17T04:23:46.826Z,49.63
2019-05-17T04:26:14.339Z,49.73
2019-05-17T04:28:44.016Z,51.27
2019-05-17T04:31:13.247Z,51.97
2019-05-17T04:33:42.623Z,54.03
2019-05-17T04:36:08.664Z,53.60
2019-05-17T04:38:36.091Z,55.77
2019-05-17T04:41:03.714Z,54.67
2019-05-17T04:43:33.462Z,54.97
2019-05-17T04:46:02.778Z,53.80
2019-05-17T04:48:32.306Z,52.93
2019-05-17T04:50:58.150Z,55.27
2019-05-17T04:53:25.561Z,53.40
2019-05-17T04:55:54.130Z,52.13
2019-05-17T04:58:23.207Z,52.43
2019-05-17T05:00:53.714Z,52.30
2019-05-17T05:03:22.923Z,52.17
2019-05-17T05:05:48.794Z,52.67
2019-05-17T05:08:16.227Z,53.83
2019-05-17T05:10:43.559Z,55.20
2019-05-17T05:13:13.355Z,53.57
2019-05-17T05:15:43.379Z,53.33
2019-05-17T05:18:12.922Z,50.50
2019-05-17T05:20:38.847Z,49.77
2019-05-17T05:23:06.250Z,50.03
2019-05-17T05:25:33.598Z,50.17
2019-05-17T05:28:02.487Z,48.93
2019-05-17T05:30:31.970Z,49.97
2019-05-17T05:32:59.069Z,49.93
2019-05-17T05:35:26.422Z,53.10
2019-05-17T05:37:53.816Z,51.47
2019-05-17T05:40:21.418Z,51.83
2019-05-17T05:42:48.863Z,54.63
2019-05-17T05:45:16.352Z,52.50
2019-05-17T05:47:43.774Z,56.00
2019-05-17T05:50:12.555Z,54.73
2019-05-17T05:52:42.312Z,50.50
2019-05-17T05:55:09.195Z,52.27
2019-05-17T05:57:36.605Z,47.93
2019-05-17T06:00:07.180Z,46.67
2019-05-17T06:02:34.597Z,48.77
2019-05-17T06:05:02.253Z,51.80
2019-05-17T06:07:32.045Z,49.30
2019-05-17T06:09:58.664Z,47.93
2019-05-17T06:12:28.158Z,46.97
2019-05-17T06:14:54.996Z,45.83
2019-05-17T06:17:22.351Z,47.83
2019-05-17T06:19:51.568Z,49.67
2019-05-17T06:22:18.685Z,45.40
2019-05-17T06:24:46.011Z,46.50
2019-05-17T06:27:13.347Z,47.97
2019-05-17T06:29:41.518Z,46.70
2019-05-17T06:32:11.695Z,49.83
2019-05-17T06:34:38.042Z,49.67
2019-05-17T06:37:05.471Z,48.73
2019-05-17T06:39:33.057Z,50.40
2019-05-17T06:42:02.572Z,53.37
2019-05-17T06:44:29.607Z,53.93
2019-05-17T06:46:56.963Z,52.33
2019-05-17T06:49:24.315Z,57.63
2019-05-17T06:51:51.711Z,62.60
2019-05-17T06:54:21.443Z,56.70
2019-05-17T06:56:48.373Z,53.37
2019-05-17T06:59:15.716Z,51.50
2019-05-17T07:01:43.068Z,53.60
2019-05-17T07:04:10.500Z,52.20
2019-05-17T07:06:40.940Z,54.67
2019-05-17T07:09:10.030Z,51.53
2019-05-17T07:11:39.680Z,52.50
2019-05-17T07:14:06.590Z,50.63
2019-05-17T07:16:33.958Z,50.17
2019-05-17T07:19:01.352Z,51.40
2019-05-17T07:21:29.749Z,53.03
2019-05-17T07:23:59.264Z,49.87
2019-05-17T07:26:26.290Z,47.40
2019-05-17T07:28:53.612Z,48.40
2019-05-17T07:31:23.149Z,46.60
2019-05-17T07:33:50.457Z,49.77
2019-05-17T07:36:19.718Z,46.50
2019-05-17T07:38:47.169Z,47.60
2019-05-17T07:41:14.521Z,48.77
2019-05-17T07:43:41.909Z,48.37
2019-05-17T07:46:09.679Z,48.83
2019-05-17T07:48:37.200Z,48.13
2019-05-17T07:51:04.590Z,47.83
2019-05-17T07:53:31.920Z,42.80
2019-05-17T07:55:59.788Z,41.77
2019-05-17T07:58:27.171Z,41.93
2019-05-17T08:00:54.586Z,42.30
2019-05-17T08:03:24.863Z,42.80
2019-05-17T08:05:51.386Z,42.47
2019-05-17T08:08:20.808Z,42.37
2019-05-17T08:10:47.765Z,40.70
2019-05-17T08:13:25.497Z,39.70
2019-05-17T08:15:44.208Z,36.80
2019-05-17T08:18:11.550Z,36.37
2019-05-17T08:20:40.040Z,32.53
2019-05-17T08:23:10.213Z,36.40
2019-05-17T08:25:49.742Z,32.37
2019-05-17T08:28:05.801Z,32.53
2019-05-17T08:30:33.117Z,34.33
2019-05-17T08:33:01.004Z,35.77
2019-05-17T08:35:30.443Z,35.33
2019-05-17T08:38:00.363Z,34.27
2019-05-17T08:40:26.800Z,32.67
2019-05-17T08:42:54.133Z,32.07
2019-05-17T08:45:21.459Z,32.57
2019-05-17T08:47:50.045Z,32.17
2019-05-17T08:50:19.845Z,33.47
2019-05-17T08:52:46.495Z,32.90
2019-05-17T08:55:13.935Z,31.43
2019-05-17T08:57:41.295Z,30.63
2019-05-17T09:00:10.548Z,29.60
2019-05-17T09:02:40.477Z,29.47
2019-05-17T09:05:06.789Z,27.93
2019-05-17T09:07:34.106Z,32.77
2019-05-17T09:10:02.037Z,34.87
2019-05-17T09:12:30.075Z,32.63
2019-05-17T09:14:57.595Z,32.20
2019-05-17T09:17:24.927Z,31.50
2019-05-17T09:19:54.340Z,31.40
2019-05-17T09:22:21.324Z,32.47
2019-05-17T09:24:50.018Z,31.73
2019-05-17T09:27:19.603Z,31.63
2019-05-17T09:29:46.581Z,30.03
2019-05-17T09:32:13.935Z,29.30
2019-05-17T09:34:41.263Z,27.87
2019-05-17T09:37:09.864Z,27.20
2019-05-17T09:39:37.455Z,28.07
2019-05-17T09:42:04.781Z,27.43
2019-05-17T09:44:32.212Z,31.00
2019-05-17T09:46:59.622Z,28.73
2019-05-17T09:49:26.967Z,28.33
2019-05-17T09:51:54.311Z,27.43
2019-05-17T09:54:31.957Z,26.80
2019-05-17T09:56:50.812Z,25.57
2019-05-17T09:59:20.272Z,23.57
2019-05-17T10:01:49.387Z,25.43
2019-05-17T10:04:16.173Z,24.83
2019-05-17T10:06:43.495Z,24.73
2019-05-17T10:09:10.922Z,25.27
2019-05-17T10:11:39.919Z,25.27
2019-05-17T10:14:07.231Z,25.27
2019-05-17T10:16:34.662Z,24.00
2019-05-17T10:19:02.057Z,25.17
2019-05-17T10:21:30.329Z,25.00
2019-05-17T10:24:00.014Z,24.07
2019-05-17T10:26:26.707Z,23.60
2019-05-17T10:28:54.058Z,22.80
2019-05-17T10:31:21.455Z,23.17
2019-05-17T10:33:49.491Z,21.90
2019-05-17T10:36:16.978Z,22.43
2019-05-17T10:38:44.354Z,21.07
2019-05-17T10:41:11.668Z,21.93
2019-05-17T10:43:39.325Z,20.00
2019-05-17T10:46:06.727Z,21.77
2019-05-17T10:48:34.266Z,22.43
2019-05-17T10:51:01.732Z,21.07
2019-05-17T10:53:29.716Z,20.63
2019-05-17T10:55:57.387Z,20.47
2019-05-17T10:58:24.723Z,20.97
2019-05-17T11:00:52.139Z,21.53
2019-05-17T11:03:20.337Z,19.53
2019-05-17T11:05:50.081Z,19.83
2019-05-17T11:08:16.894Z,21.23
2019-05-17T11:10:44.599Z,20.47
2019-05-17T11:13:11.985Z,19.97
2019-05-17T11:15:39.309Z,18.97
2019-05-17T11:18:06.710Z,19.83
2019-05-17T11:20:34.065Z,19.83
2019-05-17T11:23:01.474Z,18.57
2019-05-17T11:25:28.841Z,19.30
2019-05-17T11:27:56.141Z,19.17
2019-05-17T11:30:23.601Z,18.47
2019-05-17T11:32:50.956Z,17.63
2019-05-17T11:35:18.268Z,18.10
2019-05-17T11:37:45.606Z,18.20
2019-05-17T11:40:12.946Z,15.47
2019-05-17T11:42:40.419Z,15.63
2019-05-17T11:45:07.872Z,16.73
2019-05-17T11:47:35.359Z,16.30
2019-05-17T11:50:03.004Z,11.10
2019-05-17T11:52:30.364Z,10.33
2019-05-17T11:54:57.767Z,12.03
2019-05-17T11:57:25.146Z,13.67
2019-05-17T11:59:52.503Z,15.13
2019-05-17T12:02:21.585Z,14.53
2019-05-17T12:04:48.976Z,15.07
2019-05-17T12:07:16.290Z,14.83
2019-05-17T12:09:43.710Z,14.50
2019-05-17T12:12:11.067Z,14.47
2019-05-17T12:14:39.864Z,13.10
2019-05-17T12:17:07.096Z,12.97
2019-05-17T12:19:37.055Z,12.13
2019-05-17T12:22:03.480Z,14.10
2019-05-17T12:24:30.912Z,14.87
2019-05-17T12:26:58.352Z,13.40
2019-05-17T12:29:25.673Z,13.53
2019-05-17T12:31:53.001Z,12.73
2019-05-17T12:34:20.426Z,13.77
2019-05-17T12:36:47.769Z,14.77
2019-05-17T12:39:15.088Z,13.77
2019-05-17T12:41:42.732Z,12.17
2019-05-17T12:44:10.106Z,10.10
2019-05-17T12:46:37.460Z,9.63
2019-05-17T12:49:04.858Z,10.40
2019-05-17T12:51:33.036Z,11.80
2019-05-17T12:54:00.529Z,11.57
2019-05-17T12:56:27.866Z,12.73
2019-05-17T12:58:55.215Z,11.70
2019-05-17T13:01:22.560Z,12.00
2019-05-17T13:03:49.927Z,12.67
2019-05-17T13:06:17.233Z,11.70
2019-05-17T13:08:45.201Z,11.37
2019-05-17T13:11:12.512Z,10.72
2019-05-17T13:13:39.848Z,11.10
2019-05-17T13:16:17.464Z,10.77
2019-05-17T13:18:36.220Z,10.47
2019-05-17T13:21:03.571Z,10.57
2019-05-17T13:23:30.923Z,10.60
2019-05-17T13:25:58.239Z,10.97
2019-05-17T13:28:25.569Z,10.23
2019-05-17T13:30:52.886Z,9.67
2019-05-17T13:33:20.301Z,11.30
2019-05-17T13:35:48.011Z,10.63
2019-05-17T13:38:15.333Z,10.63
2019-05-17T13:40:42.671Z,9.83
2019-05-17T13:43:10.061Z,9.97
2019-05-17T13:45:37.361Z,10.37
2019-05-17T13:48:04.721Z,10.73
2019-05-17T13:50:32.055Z,11.90
2019-05-17T13:52:59.438Z,10.50
2019-05-17T13:55:26.754Z,10.63
2019-05-17T13:57:54.134Z,10.43
2019-05-17T14:00:21.571Z,10.37
2019-05-17T14:02:49.192Z,10.18
2019-05-17T14:05:16.577Z,10.70
2019-05-17T14:07:43.901Z,10.23
2019-05-17T14:10:26.400Z,10.40
2019-05-17T14:12:41.923Z,10.50
2019-05-17T14:15:09.306Z,11.10
2019-05-17T14:17:36.691Z,10.63
2019-05-17T14:20:04.477Z,10.60
2019-05-17T14:22:31.801Z,9.63
2019-05-17T14:24:59.212Z,7.93
2019-05-17T14:27:26.672Z,8.60
2019-05-17T14:29:54.008Z,7.90
2019-05-17T14:32:21.336Z,7.80
2019-05-17T14:34:48.637Z,8.00
2019-05-17T14:37:15.993Z,9.17
2019-05-17T14:39:43.737Z,8.43
2019-05-17T14:42:11.090Z,8.67
2019-05-17T14:44:38.463Z,9.53
2019-05-17T14:47:05.788Z,9.40
2019-05-17T14:49:33.126Z,8.77
2019-05-17T14:52:00.448Z,9.40
2019-05-17T14:54:27.784Z,9.48
2019-05-17T14:56:55.103Z,9.27
2019-05-17T14:59:22.456Z,9.37
2019-05-17T15:01:49.904Z,8.57
2019-05-17T15:04:17.240Z,10.57
2019-05-17T15:06:44.594Z,11.37
2019-05-17T15:09:12.009Z,11.33
2019-05-17T15:11:39.382Z,11.90
2019-05-17T15:14:06.705Z,11.53
2019-05-17T15:16:34.079Z,11.93
2019-05-17T15:19:01.400Z,12.03
2019-05-17T15:21:28.770Z,11.60
2019-05-17T15:23:56.114Z,10.17
2019-05-17T15:26:23.510Z,10.47
2019-05-17T15:28:50.952Z,9.73
2019-05-17T15:31:18.328Z,9.67
2019-05-17T15:33:45.685Z,10.20
2019-05-17T15:36:13.070Z,10.43
2019-05-17T15:38:40.480Z,10.60
2019-05-17T15:41:07.796Z,10.53
2019-05-17T15:43:35.147Z,10.23
2019-05-17T15:46:02.465Z,10.43
2019-05-17T15:48:29.806Z,10.03
2019-05-17T15:50:57.591Z,10.53
2019-05-17T15:53:25.014Z,9.73
2019-05-17T15:55:52.355Z,11.30
2019-05-17T15:58:19.742Z,10.97
2019-05-17T16:00:47.178Z,11.53
2019-05-17T16:03:14.503Z,11.87
2019-05-17T16:05:41.883Z,10.87
2019-05-17T16:08:09.271Z,10.37
2019-05-17T16:10:36.592Z,10.90
2019-05-17T16:13:03.960Z,11.00
2019-05-17T16:15:33.666Z,10.60
2019-05-17T16:18:00.998Z,11.70
2019-05-17T16:20:28.349Z,11.70
2019-05-17T16:22:55.825Z,11.40
2019-05-17T16:25:23.148Z,12.43
2019-05-17T16:27:50.490Z,11.40
2019-05-17T16:30:17.828Z,11.70
2019-05-17T16:32:45.213Z,12.53
2019-05-17T16:35:12.553Z,11.80
2019-05-17T16:37:39.928Z,12.03
2019-05-17T16:40:07.255Z,15.97
2019-05-17T16:42:34.634Z,15.13
2019-05-17T16:45:02.031Z,18.00
2019-05-17T16:47:29.649Z,13.87
2019-05-17T16:49:56.982Z,13.70
2019-05-17T16:52:24.306Z,13.60
2019-05-17T16:54:51.654Z,12.13
2019-05-17T16:57:18.989Z,12.43
2019-05-17T16:59:46.631Z,12.73
2019-05-17T17:02:14.021Z,12.00
2019-05-17T17:04:41.417Z,12.33
2019-05-17T17:07:08.791Z,11.23
2019-05-17T17:09:36.094Z,11.90
2019-05-17T17:12:03.430Z,12.63
2019-05-17T17:14:35.314Z,13.30
2019-05-17T17:17:09.867Z,11.50
2019-05-17T17:19:31.697Z,10.70
2019-05-17T17:21:59.066Z,9.93
2019-05-17T17:24:26.475Z,10.33
2019-05-17T17:26:53.829Z,9.70
2019-05-17T17:29:21.247Z,10.43
2019-05-17T17:31:48.629Z,9.47
2019-05-17T17:34:15.960Z,9.93
2019-05-17T17:36:46.155Z,10.40
2019-05-17T17:39:13.496Z,10.87
2019-05-17T17:41:40.854Z,9.70
2019-05-17T17:44:08.209Z,10.30
2019-05-17T17:46:35.523Z,10.43
2019-05-17T17:49:02.885Z,9.73
2019-05-17T17:51:30.239Z,9.60
2019-05-17T17:53:57.628Z,9.60
2019-05-17T17:56:24.988Z,9.07
2019-05-17T17:58:52.338Z,10.90
2019-05-17T18:01:19.720Z,9.80
2019-05-17T18:03:47.114Z,10.27
2019-05-17T18:06:14.533Z,10.00
2019-05-17T18:08:41.859Z,9.27
2019-05-17T18:11:09.255Z,10.60
2019-05-17T18:13:36.580Z,10.77
2019-05-17T18:16:03.929Z,9.57
2019-05-17T18:18:31.242Z,10.33
2019-05-17T18:20:58.610Z,9.57
2019-05-17T18:23:26.018Z,10.37
2019-05-17T18:25:53.413Z,10.90
2019-05-17T18:28:20.970Z,9.90
2019-05-17T18:30:48.551Z,9.87
2019-05-17T18:33:16.043Z,10.80
2019-05-17T18:35:43.379Z,10.60
2019-05-17T18:38:10.687Z,10.47
2019-05-17T18:40:38.021Z,10.47
2019-05-17T18:43:05.376Z,9.97
2019-05-17T18:45:32.711Z,10.43
2019-05-17T18:48:00.105Z,10.60
2019-05-17T18:50:28.283Z,11.27
2019-05-17T18:52:55.621Z,10.50
2019-05-17T18:55:22.960Z,9.97
2019-05-17T18:57:50.295Z,9.00
2019-05-17T19:00:17.692Z,10.17
2019-05-17T19:02:45.016Z,12.17
2019-05-17T19:05:12.436Z,11.37
2019-05-17T19:07:39.829Z,12.13
2019-05-17T19:10:07.537Z,14.00
2019-05-17T19:12:34.933Z,16.80
2019-05-17T19:15:02.552Z,16.83
2019-05-17T19:17:29.883Z,15.93
2019-05-17T19:19:57.264Z,15.53
2019-05-17T19:22:24.690Z,15.13
2019-05-17T19:24:51.969Z,15.23
2019-05-17T19:27:19.316Z,15.47
2019-05-17T19:29:46.632Z,15.40
2019-05-17T19:32:13.962Z,16.23
2019-05-17T19:34:41.379Z,15.27
2019-05-17T19:37:09.180Z,16.20
2019-05-17T19:39:36.505Z,17.13
2019-05-17T19:42:03.867Z,17.73
2019-05-17T19:44:31.181Z,18.53
2019-05-17T19:46:58.553Z,19.87
2019-05-17T19:49:25.835Z,18.83
2019-05-17T19:51:53.554Z,19.43
2019-05-17T19:54:20.837Z,19.97
2019-05-17T19:56:48.186Z,20.40
2019-05-17T19:59:15.512Z,19.80
2019-05-17T20:01:42.869Z,18.50
2019-05-17T20:04:10.708Z,19.03
2019-05-17T20:06:38.065Z,20.67
2019-05-17T20:09:05.883Z,20.60
2019-05-17T20:11:34.660Z,19.37
2019-05-17T20:14:02.394Z,21.33
2019-05-17T20:16:29.737Z,21.73
2019-05-17T20:18:57.046Z,22.70
2019-05-17T20:21:24.482Z,22.97
2019-05-17T20:23:51.860Z,25.97
2019-05-17T20:26:19.205Z,27.57
2019-05-17T20:28:46.605Z,27.90
2019-05-17T20:31:14.029Z,35.43
2019-05-17T20:33:41.426Z,32.03
2019-05-17T20:36:08.777Z,32.17
2019-05-17T20:38:36.071Z,31.13
2019-05-17T20:41:03.429Z,32.77
2019-05-17T20:43:30.732Z,34.83
2019-05-17T20:45:58.086Z,34.60
2019-05-17T20:48:26.157Z,32.10
2019-05-17T20:50:53.699Z,31.03
2019-05-17T20:53:21.016Z,30.10
2019-05-17T20:55:48.371Z,29.70
2019-05-17T20:58:15.806Z,29.23
2019-05-17T21:00:43.697Z,27.67
2019-05-17T21:03:13.867Z,28.87
2019-05-17T21:05:40.042Z,25.70
2019-05-17T21:08:07.415Z,23.33
2019-05-17T21:10:34.736Z,23.17
2019-05-17T21:13:02.107Z,23.40
2019-05-17T21:15:29.500Z,23.13
2019-05-17T21:17:56.852Z,23.70
2019-05-17T21:20:24.267Z,21.83
2019-05-17T21:22:51.739Z,22.07
2019-05-17T21:25:19.139Z,22.07
2019-05-17T21:27:46.487Z,20.77
2019-05-17T21:30:13.812Z,19.20
2019-05-17T21:32:41.245Z,19.30
2019-05-17T21:35:08.639Z,20.60
2019-05-17T21:37:35.996Z,19.63
2019-05-17T21:40:07.869Z,20.43
2019-05-17T21:42:35.206Z,22.80
2019-05-17T21:45:03.218Z,23.70
2019-05-17T21:47:30.778Z,26.87
2019-05-17T21:49:58.250Z,28.70
2019-05-17T21:52:25.699Z,25.03
2019-05-17T21:54:53.011Z,21.87
2019-05-17T21:57:20.445Z,25.03
2019-05-17T21:59:47.799Z,25.63
2019-05-17T22:02:15.129Z,26.43
2019-05-17T22:04:42.500Z,26.50
2019-05-17T22:07:09.980Z,27.23
2019-05-17T22:09:37.347Z,26.83
2019-05-17T22:12:12.250Z,28.70
2019-05-17T22:14:39.655Z,26.10
2019-05-17T22:17:06.946Z,27.07
2019-05-17T22:19:34.289Z,23.03
2019-05-17T22:22:01.616Z,23.30
2019-05-17T22:24:28.970Z,23.10
2019-05-17T22:26:56.309Z,22.37
2019-05-17T22:29:23.726Z,18.60
2019-05-17T22:31:51.054Z,19.53
2019-05-17T22:34:18.750Z,20.13
2019-05-17T22:36:46.114Z,20.33
2019-05-17T22:39:13.536Z,22.57
2019-05-17T22:41:40.911Z,22.87
2019-05-17T22:44:08.260Z,23.87
2019-05-17T22:46:36.647Z,24.90
2019-05-17T22:49:04.247Z,25.23
2019-05-17T22:51:31.638Z,27.33
2019-05-17T22:53:58.986Z,26.73
2019-05-17T22:56:26.449Z,28.77
2019-05-17T22:58:53.882Z,29.73
2019-05-17T23:01:21.203Z,30.90
2019-05-17T23:03:48.544Z,31.80
2019-05-17T23:06:16.209Z,35.23
2019-05-17T23:08:43.558Z,35.20
2019-05-17T23:11:10.944Z,35.23
2019-05-17T23:13:38.302Z,37.60
2019-05-17T23:16:07.271Z,36.07
2019-05-17T23:18:34.644Z,37.07
2019-05-17T23:21:02.067Z,35.47
2019-05-17T23:23:29.380Z,34.00
2019-05-17T23:25:56.735Z,34.33
2019-05-17T23:28:24.158Z,31.93
2019-05-17T23:30:51.517Z,31.97
2019-05-17T23:33:18.960Z,33.27
2019-05-17T23:35:46.368Z,33.70
2019-05-17T23:38:13.719Z,31.93
2019-05-17T23:40:41.078Z,35.03
2019-05-17T23:43:08.510Z,35.37
2019-05-17T23:45:35.837Z,34.47
2019-05-17T23:48:03.198Z,34.73
2019-05-17T23:50:30.559Z,36.10
2019-05-17T23:52:57.890Z,36.80
2019-05-17T23:55:25.406Z,35.30
2019-05-17T23:57:52.720Z,35.63
